NCAR-RAP Real-Time Weather Data

Output produced by METARs form (14 October 2019  22:56 UTC)
found at http://weather.rap.ucar.edu/surface/
 
KCNK 142155Z AUTO 16015G26KT 10SM CLR 26/09 A2977 RMK AO2 PK WND 14027/2114 SLP074 T02610094